sensor_id;sensor_type;location;lat;lon;timestamp;pressure;altitude;pressure_sealevel;temperature;humidity
17607;BME280;69222;52.242;20.980;2024-01-06T00:01:16;99881.91;;;-2.14;88.35
17607;BME280;69222;52.242;20.980;2024-01-06T00:03:45;99883.75;;;-2.10;88.66
17607;BME280;69222;52.242;20.980;2024-01-06T00:06:14;99882.94;;;-2.09;87.97
17607;BME280;69222;52.242;20.980;2024-01-06T00:08:42;99871.16;;;-2.10;87.84
17607;BME280;69222;52.242;20.980;2024-01-06T00:11:10;99883.06;;;-2.06;87.91
17607;BME280;69222;52.242;20.980;2024-01-06T00:13:38;99889.00;;;-2.04;87.99
17607;BME280;69222;52.242;20.980;2024-01-06T00:16:06;99884.78;;;-2.05;87.47
17607;BME280;69222;52.242;20.980;2024-01-06T00:18:34;99888.91;;;-2.07;87.26
17607;BME280;69222;52.242;20.980;2024-01-06T00:21:03;99878.72;;;-2.10;86.84
17607;BME280;69222;52.242;20.980;2024-01-06T00:23:31;99885.53;;;-2.07;87.16
17607;BME280;69222;52.242;20.980;2024-01-06T00:25:59;99893.16;;;-2.06;87.32
17607;BME280;69222;52.242;20.980;2024-01-06T00:28:27;99896.53;;;-2.05;87.33
17607;BME280;69222;52.242;20.980;2024-01-06T00:30:55;99899.81;;;-2.08;87.28
17607;BME280;69222;52.242;20.980;2024-01-06T00:33:23;99897.16;;;-2.11;86.84
17607;BME280;69222;52.242;20.980;2024-01-06T00:35:52;99891.22;;;-2.13;87.10
17607;BME280;69222;52.242;20.980;2024-01-06T00:38:23;99897.94;;;-2.13;87.24
17607;BME280;69222;52.242;20.980;2024-01-06T00:40:51;99901.19;;;-2.16;87.17
17607;BME280;69222;52.242;20.980;2024-01-06T00:43:18;99900.47;;;-2.13;87.49
17607;BME280;69222;52.242;20.980;2024-01-06T00:45:46;99891.22;;;-2.13;87.38
17607;BME280;69222;52.242;20.980;2024-01-06T00:48:15;99886.16;;;-2.13;87.94
17607;BME280;69222;52.242;20.980;2024-01-06T00:50:43;99888.81;;;-2.10;87.72
17607;BME280;69222;52.242;20.980;2024-01-06T00:53:11;99873.72;;;-2.08;87.63
17607;BME280;69222;52.242;20.980;2024-01-06T00:55:40;99872.00;;;-2.09;87.76
17607;BME280;69222;52.242;20.980;2024-01-06T00:58:08;99874.44;;;-2.11;87.71
17607;BME280;69222;52.242;20.980;2024-01-06T01:00:36;99872.63;;;-2.15;88.03
17607;BME280;69222;52.242;20.980;2024-01-06T01:03:04;99865.78;;;-2.17;88.64
17607;BME280;69222;52.242;20.980;2024-01-06T01:05:32;99863.91;;;-2.23;88.11
17607;BME280;69222;52.242;20.980;2024-01-06T01:08:00;99849.41;;;-2.29;89.00
17607;BME280;69222;52.242;20.980;2024-01-06T01:10:28;99846.03;;;-2.29;89.47
17607;BME280;69222;52.242;20.980;2024-01-06T01:12:57;99845.97;;;-2.31;89.54
17607;BME280;69222;52.242;20.980;2024-01-06T01:15:25;99843.28;;;-2.35;89.42
17607;BME280;69222;52.242;20.980;2024-01-06T01:17:53;99843.97;;;-2.39;89.50
17607;BME280;69222;52.242;20.980;2024-01-06T01:20:21;99855.59;;;-2.43;89.31
17607;BME280;69222;52.242;20.980;2024-01-06T01:22:49;99859.78;;;-2.44;89.63
17607;BME280;69222;52.242;20.980;2024-01-06T01:25:17;99871.66;;;-2.41;89.88
17607;BME280;69222;52.242;20.980;2024-01-06T01:27:45;99868.28;;;-2.41;89.65
17607;BME280;69222;52.242;20.980;2024-01-06T01:30:15;99868.31;;;-2.40;89.47
17607;BME280;69222;52.242;20.980;2024-01-06T01:32:43;99870.13;;;-2.37;90.05
17607;BME280;69222;52.242;20.980;2024-01-06T01:35:11;99867.72;;;-2.34;89.42
17607;BME280;69222;52.242;20.980;2024-01-06T01:37:39;99875.28;;;-2.34;88.67
17607;BME280;69222;52.242;20.980;2024-01-06T01:40:08;99879.59;;;-2.32;88.91
17607;BME280;69222;52.242;20.980;2024-01-06T01:42:36;99876.13;;;-2.34;88.40
17607;BME280;69222;52.242;20.980;2024-01-06T01:45:04;99868.53;;;-2.35;88.25
17607;BME280;69222;52.242;20.980;2024-01-06T01:47:36;99866.78;;;-2.36;87.70
17607;BME280;69222;52.242;20.980;2024-01-06T01:50:05;99869.31;;;-2.36;88.12
17607;BME280;69222;52.242;20.980;2024-01-06T01:52:34;99865.06;;;-2.37;87.79
17607;BME280;69222;52.242;20.980;2024-01-06T01:55:03;99862.59;;;-2.36;87.87
17607;BME280;69222;52.242;20.980;2024-01-06T01:57:32;99860.06;;;-2.36;87.69
17607;BME280;69222;52.242;20.980;2024-01-06T02:00:00;99862.59;;;-2.36;87.54
17607;BME280;69222;52.242;20.980;2024-01-06T02:02:29;99859.34;;;-2.33;87.86
17607;BME280;69222;52.242;20.980;2024-01-06T02:04:59;99854.34;;;-2.32;87.11
17607;BME280;69222;52.242;20.980;2024-01-06T02:07:27;99862.72;;;-2.33;86.90
17607;BME280;69222;52.242;20.980;2024-01-06T02:09:55;99855.09;;;-2.34;86.17
17607;BME280;69222;52.242;20.980;2024-01-06T02:12:23;99857.63;;;-2.34;86.55
17607;BME280;69222;52.242;20.980;2024-01-06T02:14:51;99859.34;;;-2.33;86.11
17607;BME280;69222;52.242;20.980;2024-01-06T02:17:19;99854.13;;;-2.38;86.12
17607;BME280;69222;52.242;20.980;2024-01-06T02:19:47;99857.66;;;-2.33;85.31
17607;BME280;69222;52.242;20.980;2024-01-06T02:22:16;99854.28;;;-2.33;85.02
17607;BME280;69222;52.242;20.980;2024-01-06T02:24:44;99847.53;;;-2.34;84.82
17607;BME280;69222;52.242;20.980;2024-01-06T02:27:12;99840.78;;;-2.35;85.54
17607;BME280;69222;52.242;20.980;2024-01-06T02:29:41;99836.69;;;-2.32;85.60
17607;BME280;69222;52.242;20.980;2024-01-06T02:32:09;99840.00;;;-2.33;84.68
17607;BME280;69222;52.242;20.980;2024-01-06T02:34:37;99835.81;;;-2.32;84.58
17607;BME280;69222;52.242;20.980;2024-01-06T02:37:05;99826.50;;;-2.35;84.58
17607;BME280;69222;52.242;20.980;2024-01-06T02:39:35;99833.97;;;-2.36;85.03
17607;BME280;69222;52.242;20.980;2024-01-06T02:42:03;99833.13;;;-2.37;84.83
17607;BME280;69222;52.242;20.980;2024-01-06T02:44:31;99843.19;;;-2.38;84.70
17607;BME280;69222;52.242;20.980;2024-01-06T02:47:02;99841.56;;;-2.36;84.85
17607;BME280;69222;52.242;20.980;2024-01-06T02:49:30;99840.84;;;-2.32;85.21
17607;BME280;69222;52.242;20.980;2024-01-06T02:51:58;99840.94;;;-2.31;84.61
17607;BME280;69222;52.242;20.980;2024-01-06T02:54:26;99840.06;;;-2.31;84.90
17607;BME280;69222;52.242;20.980;2024-01-06T02:56:55;99834.09;;;-2.33;85.02
17607;BME280;69222;52.242;20.980;2024-01-06T02:59:23;99827.47;;;-2.31;85.14
17607;BME280;69222;52.242;20.980;2024-01-06T03:01:51;99836.91;;;-2.26;85.11
17607;BME280;69222;52.242;20.980;2024-01-06T03:04:19;99833.53;;;-2.26;84.54
17607;BME280;69222;52.242;20.980;2024-01-06T03:06:47;99833.41;;;-2.29;84.57
17607;BME280;69222;52.242;20.980;2024-01-06T03:09:19;99833.47;;;-2.28;85.12
17607;BME280;69222;52.242;20.980;2024-01-06T03:11:47;99844.44;;;-2.27;84.89
17607;BME280;69222;52.242;20.980;2024-01-06T03:14:16;99842.03;;;-2.24;85.21
17607;BME280;69222;52.242;20.980;2024-01-06T03:16:44;99846.19;;;-2.25;84.92
17607;BME280;69222;52.242;20.980;2024-01-06T03:19:12;99842.75;;;-2.27;85.13
17607;BME280;69222;52.242;20.980;2024-01-06T03:21:40;99821.72;;;-2.27;85.10
17607;BME280;69222;52.242;20.980;2024-01-06T03:24:08;99825.13;;;-2.25;85.51
17607;BME280;69222;52.242;20.980;2024-01-06T03:26:36;99823.53;;;-2.23;85.75
17607;BME280;69222;52.242;20.980;2024-01-06T03:29:04;99826.88;;;-2.24;85.18
17607;BME280;69222;52.242;20.980;2024-01-06T03:31:34;99820.88;;;-2.28;85.77
17607;BME280;69222;52.242;20.980;2024-01-06T03:34:02;99825.06;;;-2.28;85.69
17607;BME280;69222;52.242;20.980;2024-01-06T03:36:30;99819.03;;;-2.32;86.00
17607;BME280;69222;52.242;20.980;2024-01-06T03:38:58;99814.84;;;-2.31;86.32
17607;BME280;69222;52.242;20.980;2024-01-06T03:41:26;99813.91;;;-2.33;86.41
17607;BME280;69222;52.242;20.980;2024-01-06T03:43:54;99823.09;;;-2.35;86.54
17607;BME280;69222;52.242;20.980;2024-01-06T03:46:22;99823.03;;;-2.37;86.47
17607;BME280;69222;52.242;20.980;2024-01-06T03:48:52;99820.59;;;-2.35;86.47
17607;BME280;69222;52.242;20.980;2024-01-06T03:51:20;99810.53;;;-2.34;86.88
17607;BME280;69222;52.242;20.980;2024-01-06T03:53:48;99810.53;;;-2.34;87.15
17607;BME280;69222;52.242;20.980;2024-01-06T03:56:16;99833.38;;;-2.31;87.56
17607;BME280;69222;52.242;20.980;2024-01-06T03:58:45;99833.41;;;-2.29;86.93
17607;BME280;69222;52.242;20.980;2024-01-06T04:01:12;99836.75;;;-2.30;86.92
17607;BME280;69222;52.242;20.980;2024-01-06T04:03:40;99829.97;;;-2.31;87.08
17607;BME280;69222;52.242;20.980;2024-01-06T04:06:10;99835.03;;;-2.31;87.47
17607;BME280;69222;52.242;20.980;2024-01-06T04:08:39;99839.31;;;-2.29;87.81
17607;BME280;69222;52.242;20.980;2024-01-06T04:11:08;99847.84;;;-2.25;87.87
17607;BME280;69222;52.242;20.980;2024-01-06T04:13:36;99844.75;;;-2.18;88.30
17607;BME280;69222;52.242;20.980;2024-01-06T04:16:04;99847.50;;;-2.12;87.55
17607;BME280;69222;52.242;20.980;2024-01-06T04:18:32;99844.13;;;-2.12;87.20
17607;BME280;69222;52.242;20.980;2024-01-06T04:21:00;99840.66;;;-2.14;87.37
17607;BME280;69222;52.242;20.980;2024-01-06T04:23:29;99837.28;;;-2.15;87.87
17607;BME280;69222;52.242;20.980;2024-01-06T04:25:57;99838.91;;;-2.17;88.20
17607;BME280;69222;52.242;20.980;2024-01-06T04:28:25;99829.69;;;-2.16;88.12
17607;BME280;69222;52.242;20.980;2024-01-06T04:30:53;99832.19;;;-2.16;88.88
17607;BME280;69222;52.242;20.980;2024-01-06T04:33:21;99836.47;;;-2.14;88.93
17607;BME280;69222;52.242;20.980;2024-01-06T04:35:49;99840.75;;;-2.13;89.11
17607;BME280;69222;52.242;20.980;2024-01-06T04:38:17;99847.63;;;-2.09;89.04
17607;BME280;69222;52.242;20.980;2024-01-06T04:40:47;99851.03;;;-2.07;89.46
17607;BME280;69222;52.242;20.980;2024-01-06T04:43:15;99854.41;;;-2.06;88.69
17607;BME280;69222;52.242;20.980;2024-01-06T04:45:43;99849.38;;;-2.06;88.88
17607;BME280;69222;52.242;20.980;2024-01-06T04:48:11;99847.72;;;-2.06;88.35
17607;BME280;69222;52.242;20.980;2024-01-06T04:50:39;99850.25;;;-2.06;88.31
17607;BME280;69222;52.242;20.980;2024-01-06T04:53:07;99854.50;;;-2.05;88.75
17607;BME280;69222;52.242;20.980;2024-01-06T04:55:35;99862.00;;;-2.06;88.36
17607;BME280;69222;52.242;20.980;2024-01-06T04:58:04;99856.09;;;-2.07;88.42
17607;BME280;69222;52.242;20.980;2024-01-06T05:00:32;99860.28;;;-2.07;88.52
17607;BME280;69222;52.242;20.980;2024-01-06T05:03:03;99854.50;;;-2.05;88.58
17607;BME280;69222;52.242;20.980;2024-01-06T05:05:32;99851.16;;;-2.04;88.30
17607;BME280;69222;52.242;20.980;2024-01-06T05:08:00;99843.53;;;-2.05;88.24
17607;BME280;69222;52.242;20.980;2024-01-06T05:10:28;99848.59;;;-2.05;88.49
17607;BME280;69222;52.242;20.980;2024-01-06T05:12:55;99840.09;;;-2.07;88.23
17607;BME280;69222;52.242;20.980;2024-01-06T05:15:25;99851.03;;;-2.07;88.70
17607;BME280;69222;52.242;20.980;2024-01-06T05:17:53;99851.81;;;-2.09;88.72
17607;BME280;69222;52.242;20.980;2024-01-06T05:20:21;99859.31;;;-2.11;88.72
17607;BME280;69222;52.242;20.980;2024-01-06T05:22:49;99860.06;;;-2.13;88.38
17607;BME280;69222;52.242;20.980;2024-01-06T05:25:17;99855.78;;;-2.16;88.56
17607;BME280;69222;52.242;20.980;2024-01-06T05:27:45;99857.25;;;-2.21;88.65
17607;BME280;69222;52.242;20.980;2024-01-06T05:30:13;99858.88;;;-2.23;88.36
17607;BME280;69222;52.242;20.980;2024-01-06T05:32:43;99857.16;;;-2.24;89.36
17607;BME280;69222;52.242;20.980;2024-01-06T05:35:11;99857.16;;;-2.24;88.47
17607;BME280;69222;52.242;20.980;2024-01-06T05:37:40;99858.88;;;-2.23;88.63
17607;BME280;69222;52.242;20.980;2024-01-06T05:40:09;99866.31;;;-2.26;88.44
17607;BME280;69222;52.242;20.980;2024-01-06T05:42:38;99873.03;;;-2.27;88.90
17607;BME280;69222;52.242;20.980;2024-01-06T05:45:06;99872.19;;;-2.27;88.52
17607;BME280;69222;52.242;20.980;2024-01-06T05:47:34;99871.31;;;-2.28;88.76
17607;BME280;69222;52.242;20.980;2024-01-06T05:50:05;99861.97;;;-2.30;88.48
17607;BME280;69222;52.242;20.980;2024-01-06T05:52:35;99873.78;;;-2.29;89.10
17607;BME280;69222;52.242;20.980;2024-01-06T05:55:04;99864.44;;;-2.32;88.18
17607;BME280;69222;52.242;20.980;2024-01-06T05:57:32;99861.81;;;-2.35;88.50
17607;BME280;69222;52.242;20.980;2024-01-06T06:00:00;99866.03;;;-2.34;88.71
17607;BME280;69222;52.242;20.980;2024-01-06T06:02:28;99869.53;;;-2.30;88.96
17607;BME280;69222;52.242;20.980;2024-01-06T06:04:58;99866.31;;;-2.26;89.29
17607;BME280;69222;52.242;20.980;2024-01-06T06:07:27;99874.75;;;-2.26;88.69
17607;BME280;69222;52.242;20.980;2024-01-06T06:09:55;99882.41;;;-2.24;88.65
17607;BME280;69222;52.242;20.980;2024-01-06T06:12:23;99886.75;;;-2.20;88.77
17607;BME280;69222;52.242;20.980;2024-01-06T06:14:51;99900.16;;;-2.21;88.58
17607;BME280;69222;52.242;20.980;2024-01-06T06:17:19;99893.50;;;-2.19;88.83
17607;BME280;69222;52.242;20.980;2024-01-06T06:19:47;99899.50;;;-2.17;88.70
17607;BME280;69222;52.242;20.980;2024-01-06T06:22:15;99914.56;;;-2.19;88.47
17607;BME280;69222;52.242;20.980;2024-01-06T06:24:44;99912.00;;;-2.20;88.23
17607;BME280;69222;52.242;20.980;2024-01-06T06:27:12;99920.34;;;-2.21;88.16
17607;BME280;69222;52.242;20.980;2024-01-06T06:29:40;99906.00;;;-2.22;88.00
17607;BME280;69222;52.242;20.980;2024-01-06T06:32:08;99906.00;;;-2.22;88.79
17607;BME280;69222;52.242;20.980;2024-01-06T06:34:36;99913.69;;;-2.19;88.65
17607;BME280;69222;52.242;20.980;2024-01-06T06:37:04;99906.09;;;-2.21;88.57
17607;BME280;69222;52.242;20.980;2024-01-06T06:39:32;99908.59;;;-2.21;88.32
17607;BME280;69222;52.242;20.980;2024-01-06T06:42:03;99916.22;;;-2.19;88.32
17607;BME280;69222;52.242;20.980;2024-01-06T06:44:31;99927.16;;;-2.19;88.04
17607;BME280;69222;52.242;20.980;2024-01-06T06:46:59;99929.53;;;-2.23;87.85
17607;BME280;69222;52.242;20.980;2024-01-06T06:49:27;99940.47;;;-2.23;88.36
17607;BME280;69222;52.242;20.980;2024-01-06T06:51:55;99950.56;;;-2.23;88.54
17607;BME280;69222;52.242;20.980;2024-01-06T06:54:23;99954.03;;;-2.21;88.08
17607;BME280;69222;52.242;20.980;2024-01-06T06:56:51;99949.84;;;-2.20;87.93
17607;BME280;69222;52.242;20.980;2024-01-06T06:59:20;99944.84;;;-2.19;88.00
17607;BME280;69222;52.242;20.980;2024-01-06T07:01:48;99943.28;;;-2.15;88.07
17607;BME280;69222;52.242;20.980;2024-01-06T07:04:17;99946.69;;;-2.14;88.04
17607;BME280;69222;52.242;20.980;2024-01-06T07:06:44;99953.25;;;-2.18;87.25
17607;BME280;69222;52.242;20.980;2024-01-06T07:09:12;99959.97;;;-2.19;87.63
17607;BME280;69222;52.242;20.980;2024-01-06T07:11:40;99954.06;;;-2.19;87.13
17607;BME280;69222;52.242;20.980;2024-01-06T07:14:08;99942.19;;;-2.22;87.14
17607;BME280;69222;52.242;20.980;2024-01-06T07:16:37;99946.38;;;-2.22;87.22
17607;BME280;69222;52.242;20.980;2024-01-06T07:19:06;99936.28;;;-2.22;87.33
17607;BME280;69222;52.242;20.980;2024-01-06T07:21:34;99929.56;;;-2.22;87.10
17607;BME280;69222;52.242;20.980;2024-01-06T07:24:02;99933.03;;;-2.20;87.00
17607;BME280;69222;52.242;20.980;2024-01-06T07:26:30;99921.97;;;-2.23;87.12
17607;BME280;69222;52.242;20.980;2024-01-06T07:28:58;99928.59;;;-2.25;86.51
17607;BME280;69222;52.242;20.980;2024-01-06T07:31:26;99931.13;;;-2.25;87.33
17607;BME280;69222;52.242;20.980;2024-01-06T07:33:56;99942.06;;;-2.25;87.05
17607;BME280;69222;52.242;20.980;2024-01-06T07:36:24;99947.06;;;-2.26;86.96
17607;BME280;69222;52.242;20.980;2024-01-06T07:38:52;99947.13;;;-2.25;87.36
17607;BME280;69222;52.242;20.980;2024-01-06T07:41:21;99953.22;;;-2.20;86.64
17607;BME280;69222;52.242;20.980;2024-01-06T07:43:49;99964.28;;;-2.16;86.63
17607;BME280;69222;52.242;20.980;2024-01-06T07:46:17;99974.56;;;-2.11;87.11
17607;BME280;69222;52.242;20.980;2024-01-06T07:48:46;99985.69;;;-2.06;87.16
17607;BME280;69222;52.242;20.980;2024-01-06T07:51:15;99977.38;;;-2.04;86.58
17607;BME280;69222;52.242;20.980;2024-01-06T07:53:43;99979.19;;;-2.00;86.62
17607;BME280;69222;52.242;20.980;2024-01-06T07:56:11;99984.31;;;-1.98;86.04
17607;BME280;69222;52.242;20.980;2024-01-06T07:58:39;99991.81;;;-2.00;85.71
17607;BME280;69222;52.242;20.980;2024-01-06T08:01:07;99986.72;;;-2.01;85.86
17607;BME280;69222;52.242;20.980;2024-01-06T08:03:35;99983.47;;;-1.99;85.76
17607;BME280;69222;52.242;20.980;2024-01-06T08:06:04;99982.41;;;-2.04;85.57
17607;BME280;69222;52.242;20.980;2024-01-06T08:08:34;99987.41;;;-2.05;86.21
17607;BME280;69222;52.242;20.980;2024-01-06T08:11:02;99987.41;;;-2.05;85.87
17607;BME280;69222;52.242;20.980;2024-01-06T08:13:30;99991.66;;;-2.04;85.67
17607;BME280;69222;52.242;20.980;2024-01-06T08:15:58;99977.25;;;-2.07;85.47
17607;BME280;69222;52.242;20.980;2024-01-06T08:18:26;99989.94;;;-2.05;85.97
17607;BME280;69222;52.242;20.980;2024-01-06T08:20:54;99988.31;;;-2.03;85.51
17607;BME280;69222;52.242;20.980;2024-01-06T08:23:22;99990.94;;;-2.02;86.01
17607;BME280;69222;52.242;20.980;2024-01-06T08:25:51;99992.63;;;-2.01;86.14
17607;BME280;69222;52.242;20.980;2024-01-06T08:28:19;99985.88;;;-2.02;85.49
17607;BME280;69222;52.242;20.980;2024-01-06T08:30:49;99992.63;;;-2.01;86.14
17607;BME280;69222;52.242;20.980;2024-01-06T08:33:18;99995.13;;;-2.02;85.51
17607;BME280;69222;52.242;20.980;2024-01-06T08:35:46;100011.13;;;-2.02;85.68
17607;BME280;69222;52.242;20.980;2024-01-06T08:38:15;100010.91;;;-2.06;85.63
17607;BME280;69222;52.242;20.980;2024-01-06T08:40:43;100015.97;;;-2.06;85.48
17607;BME280;69222;52.242;20.980;2024-01-06T08:43:15;100015.81;;;-2.11;85.55
17607;BME280;69222;52.242;20.980;2024-01-06T08:45:43;100022.50;;;-2.11;85.81
17607;BME280;69222;52.242;20.980;2024-01-06T08:48:11;100021.78;;;-2.09;86.08
17607;BME280;69222;52.242;20.980;2024-01-06T08:50:40;100018.50;;;-2.06;85.78
17607;BME280;69222;52.242;20.980;2024-01-06T08:53:08;100026.03;;;-2.08;86.04
17607;BME280;69222;52.242;20.980;2024-01-06T08:55:36;100036.13;;;-2.08;85.29
17607;BME280;69222;52.242;20.980;2024-01-06T08:58:04;100029.34;;;-2.09;85.48
17607;BME280;69222;52.242;20.980;2024-01-06T09:00:34;100035.22;;;-2.10;85.63
17607;BME280;69222;52.242;20.980;2024-01-06T09:03:02;100034.41;;;-2.09;85.82
17607;BME280;69222;52.242;20.980;2024-01-06T09:05:30;100036.13;;;-2.08;85.62
17607;BME280;69222;52.242;20.980;2024-01-06T09:07:58;100042.88;;;-2.07;85.40
17607;BME280;69222;52.242;20.980;2024-01-06T09:10:26;100046.34;;;-2.05;85.68
17607;BME280;69222;52.242;20.980;2024-01-06T09:12:55;100044.72;;;-2.03;85.46
17607;BME280;69222;52.242;20.980;2024-01-06T09:15:23;100049.88;;;-2.00;85.55
17607;BME280;69222;52.242;20.980;2024-01-06T09:17:53;100056.69;;;-1.99;84.99
17607;BME280;69222;52.242;20.980;2024-01-06T09:20:21;100047.25;;;-2.03;85.16
17607;BME280;69222;52.242;20.980;2024-01-06T09:22:49;100039.31;;;-2.12;84.74
17607;BME280;69222;52.242;20.980;2024-01-06T09:25:18;100045.09;;;-2.14;85.26
17607;BME280;69222;52.242;20.980;2024-01-06T09:27:45;100046.84;;;-2.13;86.21
17607;BME280;69222;52.242;20.980;2024-01-06T09:30:13;100041.97;;;-2.09;85.95
17607;BME280;69222;52.242;20.980;2024-01-06T09:32:41;100044.53;;;-2.07;85.99
17607;BME280;69222;52.242;20.980;2024-01-06T09:35:11;100042.78;;;-2.10;85.29
17607;BME280;69222;52.242;20.980;2024-01-06T09:37:39;100046.09;;;-2.11;84.97
17607;BME280;69222;52.242;20.980;2024-01-06T09:40:11;100040.00;;;-2.16;84.92
17607;BME280;69222;52.242;20.980;2024-01-06T09:42:39;100047.47;;;-2.19;86.04
17607;BME280;69222;52.242;20.980;2024-01-06T09:45:08;100040.81;;;-2.17;85.50
17607;BME280;69222;52.242;20.980;2024-01-06T09:47:37;100034.16;;;-2.15;86.07
17607;BME280;69222;52.242;20.980;2024-01-06T09:50:09;100049.56;;;-2.09;86.11
17607;BME280;69222;52.242;20.980;2024-01-06T09:52:40;100041.16;;;-2.08;85.66
17607;BME280;69222;52.242;20.980;2024-01-06T09:55:10;100045.41;;;-2.07;85.63
17607;BME280;69222;52.242;20.980;2024-01-06T09:57:39;100050.44;;;-2.07;85.41
17607;BME280;69222;52.242;20.980;2024-01-06T10:00:07;100046.22;;;-2.08;85.95
17607;BME280;69222;52.242;20.980;2024-01-06T10:02:36;100046.22;;;-2.08;86.27
17607;BME280;69222;52.242;20.980;2024-01-06T10:05:04;100041.97;;;-2.09;86.31
17607;BME280;69222;52.242;20.980;2024-01-06T10:07:32;100047.84;;;-2.10;86.60
17607;BME280;69222;52.242;20.980;2024-01-06T10:10:02;100054.66;;;-2.07;87.14
17607;BME280;69222;52.242;20.980;2024-01-06T10:12:30;100051.38;;;-2.05;86.90
17607;BME280;69222;52.242;20.980;2024-01-06T10:14:59;100050.38;;;-2.10;86.58
17607;BME280;69222;52.242;20.980;2024-01-06T10:17:27;100057.84;;;-2.11;87.30
17607;BME280;69222;52.242;20.980;2024-01-06T10:19:55;100054.44;;;-2.13;87.24
17607;BME280;69222;52.242;20.980;2024-01-06T10:22:23;100055.28;;;-2.13;87.84
17607;BME280;69222;52.242;20.980;2024-01-06T10:24:52;100057.81;;;-2.13;88.08
17607;BME280;69222;52.242;20.980;2024-01-06T10:27:21;100051.13;;;-2.11;88.57
17607;BME280;69222;52.242;20.980;2024-01-06T10:29:49;100059.56;;;-2.10;88.38
17607;BME280;69222;52.242;20.980;2024-01-06T10:32:17;100048.69;;;-2.09;88.57
17607;BME280;69222;52.242;20.980;2024-01-06T10:34:46;100060.63;;;-2.05;88.56
17607;BME280;69222;52.242;20.980;2024-01-06T10:37:16;100056.47;;;-2.03;88.65
17607;BME280;69222;52.242;20.980;2024-01-06T10:39:44;100059.88;;;-2.03;88.81
17607;BME280;69222;52.242;20.980;2024-01-06T10:42:13;100057.47;;;-2.00;88.78
17607;BME280;69222;52.242;20.980;2024-01-06T10:44:44;100057.41;;;-2.01;88.21
17607;BME280;69222;52.242;20.980;2024-01-06T10:47:14;100062.38;;;-2.03;88.40
17607;BME280;69222;52.242;20.980;2024-01-06T10:49:43;100065.84;;;-2.01;88.91
17607;BME280;69222;52.242;20.980;2024-01-06T10:52:12;100058.28;;;-2.01;88.51
17607;BME280;69222;52.242;20.980;2024-01-06T10:54:41;100059.09;;;-2.02;88.51
17607;BME280;69222;52.242;20.980;2024-01-06T10:57:10;100062.50;;;-2.00;88.57
17607;BME280;69222;52.242;20.980;2024-01-06T10:59:39;100060.81;;;-2.01;88.52
17607;BME280;69222;52.242;20.980;2024-01-06T11:02:10;100054.16;;;-1.99;89.17
17607;BME280;69222;52.242;20.980;2024-01-06T11:04:39;100055.06;;;-1.97;89.33
17607;BME280;69222;52.242;20.980;2024-01-06T11:07:08;100049.03;;;-2.00;88.85
17607;BME280;69222;52.242;20.980;2024-01-06T11:09:39;100044.84;;;-2.00;89.31
17607;BME280;69222;52.242;20.980;2024-01-06T11:12:09;100048.34;;;-1.96;89.86
17607;BME280;69222;52.242;20.980;2024-01-06T11:14:37;100053.34;;;-1.98;89.77
17607;BME280;69222;52.242;20.980;2024-01-06T11:17:05;100057.66;;;-1.95;90.29
17607;BME280;69222;52.242;20.980;2024-01-06T11:19:44;100050.19;;;-1.92;89.81
17607;BME280;69222;52.242;20.980;2024-01-06T11:22:23;100048.50;;;-1.91;89.96
17607;BME280;69222;52.242;20.980;2024-01-06T11:24:52;100055.31;;;-1.90;89.68
17607;BME280;69222;52.242;20.980;2024-01-06T11:27:24;100049.50;;;-1.88;89.38
17607;BME280;69222;52.242;20.980;2024-01-06T11:29:53;100053.00;;;-1.84;89.67
17607;BME280;69222;52.242;20.980;2024-01-06T11:32:27;100054.75;;;-1.83;89.38
17607;BME280;69222;52.242;20.980;2024-01-06T11:35:05;100058.94;;;-1.84;88.86
17607;BME280;69222;52.242;20.980;2024-01-06T11:37:51;100056.47;;;-1.82;88.99
17607;BME280;69222;52.242;20.980;2024-01-06T11:40:24;100060.81;;;-1.78;89.17
17607;BME280;69222;52.242;20.980;2024-01-06T11:43:03;100055.72;;;-1.80;88.41
17607;BME280;69222;52.242;20.980;2024-01-06T11:45:34;100065.75;;;-1.81;87.40
17607;BME280;69222;52.242;20.980;2024-01-06T11:48:03;100063.91;;;-1.85;87.67
17607;BME280;69222;52.242;20.980;2024-01-06T11:50:34;100066.28;;;-1.90;87.61
17607;BME280;69222;52.242;20.980;2024-01-06T11:53:03;100067.84;;;-1.92;87.54
17607;BME280;69222;52.242;20.980;2024-01-06T11:55:31;100072.06;;;-1.92;87.74
17607;BME280;69222;52.242;20.980;2024-01-06T11:58:00;100066.16;;;-1.93;87.04
17607;BME280;69222;52.242;20.980;2024-01-06T12:00:30;100070.34;;;-1.93;86.78
17607;BME280;69222;52.242;20.980;2024-01-06T12:02:59;100066.19;;;-1.91;87.14
17607;BME280;69222;52.242;20.980;2024-01-06T12:05:28;100062.94;;;-1.89;87.29
17607;BME280;69222;52.242;20.980;2024-01-06T12:07:59;100053.88;;;-1.84;87.59
17607;BME280;69222;52.242;20.980;2024-01-06T12:10:28;100057.47;;;-1.77;87.17
17607;BME280;69222;52.242;20.980;2024-01-06T12:12:58;100071.78;;;-1.78;86.66
17607;BME280;69222;52.242;20.980;2024-01-06T12:15:27;100066.81;;;-1.76;86.72
17607;BME280;69222;52.242;20.980;2024-01-06T12:17:55;100066.69;;;-1.79;86.33
17607;BME280;69222;52.242;20.980;2024-01-06T12:20:23;100061.47;;;-1.84;86.39
17607;BME280;69222;52.242;20.980;2024-01-06T12:22:52;100063.19;;;-1.83;86.57
17607;BME280;69222;52.242;20.980;2024-01-06T12:25:23;100073.88;;;-1.88;86.34
17607;BME280;69222;52.242;20.980;2024-01-06T12:27:52;100066.28;;;-1.90;86.32
17607;BME280;69222;52.242;20.980;2024-01-06T12:30:22;100068.91;;;-1.87;85.95
17607;BME280;69222;52.242;20.980;2024-01-06T12:32:51;100074.81;;;-1.86;85.65
17607;BME280;69222;52.242;20.980;2024-01-06T12:35:20;100068.84;;;-1.88;85.01
17607;BME280;69222;52.242;20.980;2024-01-06T12:37:48;100074.88;;;-1.85;85.43
17607;BME280;69222;52.242;20.980;2024-01-06T12:40:16;100079.31;;;-1.79;85.35
17607;BME280;69222;52.242;20.980;2024-01-06T12:42:48;100082.81;;;-1.76;84.49
17607;BME280;69222;52.242;20.980;2024-01-06T12:45:16;100085.38;;;-1.74;83.27
17607;BME280;69222;52.242;20.980;2024-01-06T12:47:44;100091.97;;;-1.78;82.27
17607;BME280;69222;52.242;20.980;2024-01-06T12:50:12;100090.41;;;-1.76;81.55
17607;BME280;69222;52.242;20.980;2024-01-06T12:52:41;100095.50;;;-1.74;81.43
17607;BME280;69222;52.242;20.980;2024-01-06T12:55:09;100088.72;;;-1.75;80.28